sensor_id;sensor_type;location;lat;lon;timestamp;pressure;altitude;pressure_sealevel;temperature;humidity
16834;BME280;8533;48.426;10.868;2022-11-02T00:01:52;96771.73;;;8.60;100.00
16834;BME280;8533;48.426;10.868;2022-11-02T00:04:20;96772.98;;;8.58;100.00
16834;BME280;8533;48.426;10.868;2022-11-02T00:06:47;96775.22;;;8.54;100.00
16834;BME280;8533;48.426;10.868;2022-11-02T00:09:14;96771.81;;;8.54;100.00
16834;BME280;8533;48.426;10.868;2022-11-02T00:11:42;96775.13;;;8.52;100.00
16834;BME280;8533;48.426;10.868;2022-11-02T00:14:09;96778.48;;;8.50;100.00
16834;BME280;8533;48.426;10.868;2022-11-02T00:16:38;96783.11;;;8.48;100.00
16834;BME280;8533;48.426;10.868;2022-11-02T00:19:07;96780.92;;;8.45;100.00
16834;BME280;8533;48.426;10.868;2022-11-02T00:21:36;96785.84;;;8.43;100.00
16834;BME280;8533;48.426;10.868;2022-11-02T00:24:05;96780.92;;;8.45;100.00
16834;BME280;8533;48.426;10.868;2022-11-02T00:26:35;96785.58;;;8.43;100.00
16834;BME280;8533;48.426;10.868;2022-11-02T00:29:06;96781.88;;;8.41;100.00
16834;BME280;8533;48.426;10.868;2022-11-02T00:31:34;96785.99;;;8.39;100.00
16834;BME280;8533;48.426;10.868;2022-11-02T00:34:01;96778.83;;;8.35;100.00
16834;BME280;8533;48.426;10.868;2022-11-02T00:36:29;96784.81;;;8.35;100.00
16834;BME280;8533;48.426;10.868;2022-11-02T00:38:57;96785.91;;;8.37;100.00
16834;BME280;8533;48.426;10.868;2022-11-02T00:41:24;96791.63;;;8.36;100.00
16834;BME280;8533;48.426;10.868;2022-11-02T00:43:51;96800.45;;;8.35;100.00
16834;BME280;8533;48.426;10.868;2022-11-02T00:46:19;96792.63;;;8.35;100.00
16834;BME280;8533;48.426;10.868;2022-11-02T00:48:46;96802.55;;;8.36;100.00
16834;BME280;8533;48.426;10.868;2022-11-02T00:51:14;96799.15;;;8.35;100.00
16834;BME280;8533;48.426;10.868;2022-11-02T00:53:41;96806.91;;;8.33;100.00
16834;BME280;8533;48.426;10.868;2022-11-02T00:56:09;96804.69;;;8.30;100.00
16834;BME280;8533;48.426;10.868;2022-11-02T00:58:36;96810.61;;;8.28;100.00
16834;BME280;8533;48.426;10.868;2022-11-02T01:01:05;96813.22;;;8.28;100.00
16834;BME280;8533;48.426;10.868;2022-11-02T01:03:32;96805.13;;;8.27;100.00
16834;BME280;8533;48.426;10.868;2022-11-02T01:06:11;96809.75;;;8.25;100.00
16834;BME280;8533;48.426;10.868;2022-11-02T01:08:38;96810.55;;;8.25;100.00
16834;BME280;8533;48.426;10.868;2022-11-02T01:11:16;96812.36;;;8.25;100.00
16834;BME280;8533;48.426;10.868;2022-11-02T01:13:44;96814.97;;;8.25;100.00
16834;BME280;8533;48.426;10.868;2022-11-02T01:16:12;96811.56;;;8.24;100.00
16834;BME280;8533;48.426;10.868;2022-11-02T01:18:41;96817.36;;;8.26;100.00
16834;BME280;8533;48.426;10.868;2022-11-02T01:21:09;96816.12;;;8.29;100.00
16834;BME280;8533;48.426;10.868;2022-11-02T01:23:37;96807.20;;;8.34;100.00
16834;BME280;8533;48.426;10.868;2022-11-02T01:26:08;96806.84;;;8.39;100.00
16834;BME280;8533;48.426;10.868;2022-11-02T01:28:37;96814.01;;;8.44;100.00
16834;BME280;8533;48.426;10.868;2022-11-02T01:31:05;96816.50;;;8.48;100.00
16834;BME280;8533;48.426;10.868;2022-11-02T01:33:33;96821.29;;;8.51;100.00
16834;BME280;8533;48.426;10.868;2022-11-02T01:36:05;96817.52;;;8.56;100.00
16834;BME280;8533;48.426;10.868;2022-11-02T01:38:32;96816.30;;;8.59;100.00
16834;BME280;8533;48.426;10.868;2022-11-02T01:41:00;96818.17;;;8.61;100.00
16834;BME280;8533;48.426;10.868;2022-11-02T01:43:29;96817.25;;;8.64;100.00
16834;BME280;8533;48.426;10.868;2022-11-02T01:48:47;96817.17;;;8.71;100.00
16834;BME280;8533;48.426;10.868;2022-11-02T01:51:17;96816.97;;;8.72;100.00
16834;BME280;8533;48.426;10.868;2022-11-02T01:53:45;96818.27;;;8.72;100.00
16834;BME280;8533;48.426;10.868;2022-11-02T01:56:16;96815.45;;;8.74;100.00
16834;BME280;8533;48.426;10.868;2022-11-02T01:58:46;96814.70;;;8.76;100.00
16834;BME280;8533;48.426;10.868;2022-11-02T02:01:14;96815.95;;;8.73;100.00
16834;BME280;8533;48.426;10.868;2022-11-02T02:03:42;96819.06;;;8.73;100.00
16834;BME280;8533;48.426;10.868;2022-11-02T02:06:12;96815.37;;;8.71;100.00
16834;BME280;8533;48.426;10.868;2022-11-02T02:08:43;96819.57;;;8.72;100.00
16834;BME280;8533;48.426;10.868;2022-11-02T02:14:09;96817.84;;;8.75;100.00
16834;BME280;8533;48.426;10.868;2022-11-02T02:16:41;96819.16;;;8.75;100.00
16834;BME280;8533;48.426;10.868;2022-11-02T02:19:11;96820.22;;;8.77;100.00
16834;BME280;8533;48.426;10.868;2022-11-02T02:21:57;96824.42;;;8.78;100.00
16834;BME280;8533;48.426;10.868;2022-11-02T02:24:29;96818.48;;;8.80;100.00
16834;BME280;8533;48.426;10.868;2022-11-02T02:29:32;96826.61;;;8.81;100.00
16834;BME280;8533;48.426;10.868;2022-11-02T02:34:33;96826.40;;;8.83;100.00
16834;BME280;8533;48.426;10.868;2022-11-02T02:37:18;96828.71;;;8.82;100.00
16834;BME280;8533;48.426;10.868;2022-11-02T02:42:36;96834.87;;;8.87;100.00
16834;BME280;8533;48.426;10.868;2022-11-02T02:45:09;96834.50;;;8.93;100.00
16834;BME280;8533;48.426;10.868;2022-11-02T02:47:38;96828.14;;;8.98;100.00
16834;BME280;8533;48.426;10.868;2022-11-02T02:50:17;96824.57;;;9.01;100.00
16834;BME280;8533;48.426;10.868;2022-11-02T02:52:44;96827.27;;;9.04;100.00
16834;BME280;8533;48.426;10.868;2022-11-02T02:55:19;96826.04;;;9.06;100.00
16834;BME280;8533;48.426;10.868;2022-11-02T02:57:47;96831.77;;;9.06;100.00
16834;BME280;8533;48.426;10.868;2022-11-02T03:00:16;96834.88;;;9.05;100.00
16834;BME280;8533;48.426;10.868;2022-11-02T03:02:45;96836.98;;;9.06;100.00
16834;BME280;8533;48.426;10.868;2022-11-02T03:05:25;96837.48;;;9.05;100.00
16834;BME280;8533;48.426;10.868;2022-11-02T03:07:52;96841.99;;;9.07;100.00
16834;BME280;8533;48.426;10.868;2022-11-02T03:10:28;96839.14;;;9.09;100.00
16834;BME280;8533;48.426;10.868;2022-11-02T03:13:08;96840.82;;;9.12;100.00
16834;BME280;8533;48.426;10.868;2022-11-02T03:15:54;96842.62;;;9.12;100.00
16834;BME280;8533;48.426;10.868;2022-11-02T03:18:28;96835.59;;;9.12;100.00
16834;BME280;8533;48.426;10.868;2022-11-02T03:21:14;96834.00;;;9.11;100.00
16834;BME280;8533;48.426;10.868;2022-11-02T03:23:42;96836.11;;;9.12;100.00
16834;BME280;8533;48.426;10.868;2022-11-02T03:29:37;96836.39;;;9.04;100.00
16834;BME280;8533;48.426;10.868;2022-11-02T03:31:38;96830.59;;;9.02;100.00
16834;BME280;8533;48.426;10.868;2022-11-02T03:34:18;96828.48;;;9.01;100.00
16834;BME280;8533;48.426;10.868;2022-11-02T03:36:45;96811.48;;;8.99;100.00
16834;BME280;8533;48.426;10.868;2022-11-02T03:39:16;96819.81;;;8.98;100.00
16834;BME280;8533;48.426;10.868;2022-11-02T03:41:44;96833.78;;;8.95;100.00
16834;BME280;8533;48.426;10.868;2022-11-02T03:44:19;96827.12;;;8.90;100.00
16834;BME280;8533;48.426;10.868;2022-11-02T03:46:46;96830.45;;;8.88;100.00
16834;BME280;8533;48.426;10.868;2022-11-02T03:49:17;96823.79;;;8.83;100.00
16834;BME280;8533;48.426;10.868;2022-11-02T03:51:47;96826.82;;;8.79;100.00
16834;BME280;8533;48.426;10.868;2022-11-02T03:54:18;96832.75;;;8.77;100.00
16834;BME280;8533;48.426;10.868;2022-11-02T03:56:50;96835.52;;;8.73;100.00
16834;BME280;8533;48.426;10.868;2022-11-02T03:59:19;96831.94;;;8.68;100.00
16834;BME280;8533;48.426;10.868;2022-11-02T04:01:49;96829.98;;;8.63;100.00
16834;BME280;8533;48.426;10.868;2022-11-02T04:04:17;96826.23;;;8.59;100.00
16834;BME280;8533;48.426;10.868;2022-11-02T04:06:45;96826.49;;;8.60;100.00
16834;BME280;8533;48.426;10.868;2022-11-02T04:09:14;96825.94;;;8.58;100.00
16834;BME280;8533;48.426;10.868;2022-11-02T04:11:42;96820.06;;;8.63;100.00
16834;BME280;8533;48.426;10.868;2022-11-02T04:14:27;96828.27;;;8.66;100.00
16834;BME280;8533;48.426;10.868;2022-11-02T04:17:03;96832.61;;;8.72;100.00
16834;BME280;8533;48.426;10.868;2022-11-02T04:19:48;96823.63;;;8.87;100.00
16834;BME280;8533;48.426;10.868;2022-11-02T04:22:15;96825.53;;;8.89;100.00
16834;BME280;8533;48.426;10.868;2022-11-02T04:25:01;96835.24;;;8.91;100.00
16834;BME280;8533;48.426;10.868;2022-11-02T04:27:52;96840.75;;;8.92;100.00
16834;BME280;8533;48.426;10.868;2022-11-02T04:30:21;96837.05;;;8.90;100.00
16834;BME280;8533;48.426;10.868;2022-11-02T04:32:50;96830.16;;;8.87;100.00
16834;BME280;8533;48.426;10.868;2022-11-02T04:35:35;96842.91;;;8.86;100.00
16834;BME280;8533;48.426;10.868;2022-11-02T04:38:03;96844.36;;;8.82;100.00
16834;BME280;8533;48.426;10.868;2022-11-02T04:40:48;96847.18;;;8.80;100.00
16834;BME280;8533;48.426;10.868;2022-11-02T04:43:17;96843.27;;;8.80;100.00
16834;BME280;8533;48.426;10.868;2022-11-02T04:45:44;96838.34;;;8.81;100.00
16834;BME280;8533;48.426;10.868;2022-11-02T04:48:11;96843.77;;;8.79;100.00
16834;BME280;8533;48.426;10.868;2022-11-02T04:50:39;96858.41;;;8.80;100.00
16834;BME280;8533;48.426;10.868;2022-11-02T04:53:06;96850.08;;;8.81;100.00
16834;BME280;8533;48.426;10.868;2022-11-02T04:55:34;96850.59;;;8.80;100.00
16834;BME280;8533;48.426;10.868;2022-11-02T04:58:01;96849.50;;;8.79;100.00
16834;BME280;8533;48.426;10.868;2022-11-02T05:00:29;96858.71;;;8.82;100.00
16834;BME280;8533;48.426;10.868;2022-11-02T05:02:56;96850.38;;;8.82;100.00
16834;BME280;8533;48.426;10.868;2022-11-02T05:05:23;96854.85;;;8.84;100.00
16834;BME280;8533;48.426;10.868;2022-11-02T05:07:51;96858.55;;;8.86;100.00
16834;BME280;8533;48.426;10.868;2022-11-02T05:10:18;96852.33;;;8.87;100.00
16834;BME280;8533;48.426;10.868;2022-11-02T05:12:47;96843.06;;;8.82;100.00
16834;BME280;8533;48.426;10.868;2022-11-02T05:15:14;96846.77;;;8.83;100.00
16834;BME280;8533;48.426;10.868;2022-11-02T05:17:42;96840.75;;;8.83;100.00
16834;BME280;8533;48.426;10.868;2022-11-02T05:20:09;96843.27;;;8.80;100.00
16834;BME280;8533;48.426;10.868;2022-11-02T05:22:41;96845.80;;;8.77;100.00
16834;BME280;8533;48.426;10.868;2022-11-02T05:25:10;96851.30;;;8.78;100.00
16834;BME280;8533;48.426;10.868;2022-11-02T05:27:38;96851.81;;;8.78;100.00
16834;BME280;8533;48.426;10.868;2022-11-02T05:30:05;96848.70;;;8.78;100.00
16834;BME280;8533;48.426;10.868;2022-11-02T05:32:33;96854.63;;;8.76;100.00
16834;BME280;8533;48.426;10.868;2022-11-02T05:35:00;96855.93;;;8.76;100.00
16834;BME280;8533;48.426;10.868;2022-11-02T05:37:28;96852.10;;;8.79;100.00
16834;BME280;8533;48.426;10.868;2022-11-02T05:39:55;96847.69;;;8.79;100.00
16834;BME280;8533;48.426;10.868;2022-11-02T05:42:23;96847.69;;;8.79;100.00
16834;BME280;8533;48.426;10.868;2022-11-02T05:44:54;96849.28;;;8.80;100.00
16834;BME280;8533;48.426;10.868;2022-11-02T05:47:21;96855.80;;;8.80;100.00
16834;BME280;8533;48.426;10.868;2022-11-02T05:49:49;96860.52;;;8.81;100.00
16834;BME280;8533;48.426;10.868;2022-11-02T05:52:16;96870.66;;;8.80;100.00
16834;BME280;8533;48.426;10.868;2022-11-02T05:54:43;96867.16;;;8.77;100.00
16834;BME280;8533;48.426;10.868;2022-11-02T05:57:11;96869.48;;;8.76;100.00
16834;BME280;8533;48.426;10.868;2022-11-02T05:59:38;96868.53;;;8.70;100.00
16834;BME280;8533;48.426;10.868;2022-11-02T06:02:06;96871.59;;;8.67;100.00
16834;BME280;8533;48.426;10.868;2022-11-02T06:04:33;96875.20;;;8.66;100.00
16834;BME280;8533;48.426;10.868;2022-11-02T06:07:01;96874.61;;;8.64;100.00
16834;BME280;8533;48.426;10.868;2022-11-02T06:09:30;96874.02;;;8.62;100.00
16834;BME280;8533;48.426;10.868;2022-11-02T06:11:57;96874.23;;;8.61;100.00
16834;BME280;8533;48.426;10.868;2022-11-02T06:14:25;96883.59;;;8.59;100.00
16834;BME280;8533;48.426;10.868;2022-11-02T06:16:52;96878.80;;;8.56;100.00
16834;BME280;8533;48.426;10.868;2022-11-02T06:19:20;96881.31;;;8.54;100.00
16834;BME280;8533;48.426;10.868;2022-11-02T06:21:47;96887.18;;;8.49;100.00
16834;BME280;8533;48.426;10.868;2022-11-02T06:24:15;96883.48;;;8.48;100.00
16834;BME280;8533;48.426;10.868;2022-11-02T06:26:43;96894.41;;;8.47;100.00
16834;BME280;8533;48.426;10.868;2022-11-02T06:29:12;96897.02;;;8.47;100.00
16834;BME280;8533;48.426;10.868;2022-11-02T06:31:40;96901.64;;;8.45;100.00
16834;BME280;8533;48.426;10.868;2022-11-02T06:34:08;96895.05;;;8.43;100.00
16834;BME280;8533;48.426;10.868;2022-11-02T06:36:35;96893.45;;;8.41;100.00
16834;BME280;8533;48.426;10.868;2022-11-02T06:39:03;96898.78;;;8.37;100.00
16834;BME280;8533;48.426;10.868;2022-11-02T06:41:31;96906.02;;;8.35;100.00
16834;BME280;8533;48.426;10.868;2022-11-02T06:43:59;96910.45;;;8.35;100.00
16834;BME280;8533;48.426;10.868;2022-11-02T06:46:27;96907.55;;;8.34;100.00
16834;BME280;8533;48.426;10.868;2022-11-02T06:48:55;96907.55;;;8.34;100.00
16834;BME280;8533;48.426;10.868;2022-11-02T06:51:24;96907.70;;;8.39;100.00
16834;BME280;8533;48.426;10.868;2022-11-02T06:53:51;96890.61;;;8.34;100.00
16834;BME280;8533;48.426;10.868;2022-11-02T06:56:19;96911.27;;;8.45;100.00
16834;BME280;8533;48.426;10.868;2022-11-02T06:58:47;96910.50;;;8.53;100.00
16834;BME280;8533;48.426;10.868;2022-11-02T07:01:14;96918.00;;;8.59;100.00
16834;BME280;8533;48.426;10.868;2022-11-02T07:03:42;96919.84;;;8.67;100.00
16834;BME280;8533;48.426;10.868;2022-11-02T07:06:09;96929.46;;;8.76;100.00
16834;BME280;8533;48.426;10.868;2022-11-02T07:08:37;96929.58;;;8.88;100.00
16834;BME280;8533;48.426;10.868;2022-11-02T07:11:04;96932.51;;;8.98;100.00
16834;BME280;8533;48.426;10.868;2022-11-02T07:13:32;96940.77;;;9.04;100.00
16834;BME280;8533;48.426;10.868;2022-11-02T07:15:59;96946.88;;;9.07;100.00
16834;BME280;8533;48.426;10.868;2022-11-02T07:18:26;96944.70;;;9.13;100.00
16834;BME280;8533;48.426;10.868;2022-11-02T07:20:54;96951.25;;;9.22;100.00
16834;BME280;8533;48.426;10.868;2022-11-02T07:23:23;96948.27;;;9.28;100.00
16834;BME280;8533;48.426;10.868;2022-11-02T07:25:50;96943.14;;;9.39;100.00
16834;BME280;8533;48.426;10.868;2022-11-02T07:28:18;96947.57;;;9.48;100.00
16834;BME280;8533;48.426;10.868;2022-11-02T07:30:46;96947.28;;;9.56;100.00
16834;BME280;8533;48.426;10.868;2022-11-02T07:33:13;96939.88;;;9.62;100.00
16834;BME280;8533;48.426;10.868;2022-11-02T07:35:40;96939.20;;;9.67;100.00
16834;BME280;8533;48.426;10.868;2022-11-02T07:38:09;96948.92;;;9.78;100.00
16834;BME280;8533;48.426;10.868;2022-11-02T07:40:37;96956.25;;;9.87;100.00
16834;BME280;8533;48.426;10.868;2022-11-02T07:43:05;96968.00;;;9.97;100.00
16834;BME280;8533;48.426;10.868;2022-11-02T07:45:32;96973.56;;;10.09;100.00
16834;BME280;8533;48.426;10.868;2022-11-02T07:48:00;96971.14;;;10.17;100.00
16834;BME280;8533;48.426;10.868;2022-11-02T07:50:27;96969.05;;;10.25;100.00
16834;BME280;8533;48.426;10.868;2022-11-02T07:52:56;96972.95;;;10.35;100.00
16834;BME280;8533;48.426;10.868;2022-11-02T07:55:26;96970.97;;;10.39;100.00
16834;BME280;8533;48.426;10.868;2022-11-02T07:57:55;96974.23;;;10.44;100.00
16834;BME280;8533;48.426;10.868;2022-11-02T08:00:24;96979.08;;;10.49;100.00
16834;BME280;8533;48.426;10.868;2022-11-02T08:02:57;96982.35;;;10.54;100.00
16834;BME280;8533;48.426;10.868;2022-11-02T08:05:26;96986.39;;;10.59;100.00
16834;BME280;8533;48.426;10.868;2022-11-02T08:08:02;96986.80;;;10.65;100.00
16834;BME280;8533;48.426;10.868;2022-11-02T08:10:30;96986.06;;;10.67;100.00
16834;BME280;8533;48.426;10.868;2022-11-02T08:12:59;96998.83;;;10.75;100.00
16834;BME280;8533;48.426;10.868;2022-11-02T08:15:26;96989.23;;;10.78;100.00
16834;BME280;8533;48.426;10.868;2022-11-02T08:18:02;96997.85;;;10.79;100.00
16834;BME280;8533;48.426;10.868;2022-11-02T08:20:29;96997.48;;;10.84;100.00
16834;BME280;8533;48.426;10.868;2022-11-02T08:22:57;97000.14;;;10.87;100.00
16834;BME280;8533;48.426;10.868;2022-11-02T08:25:25;96997.66;;;10.92;100.00
16834;BME280;8533;48.426;10.868;2022-11-02T08:27:57;96994.83;;;10.93;100.00
16834;BME280;8533;48.426;10.868;2022-11-02T08:30:30;96997.27;;;10.97;100.00
16834;BME280;8533;48.426;10.868;2022-11-02T08:32:54;96999.55;;;11.05;100.00
16834;BME280;8533;48.426;10.868;2022-11-02T08:35:22;96991.55;;;11.09;100.00
16834;BME280;8533;48.426;10.868;2022-11-02T08:37:54;96999.22;;;11.14;100.00
16834;BME280;8533;48.426;10.868;2022-11-02T08:40:21;96997.18;;;11.16;100.00
16834;BME280;8533;48.426;10.868;2022-11-02T08:42:54;96991.31;;;11.23;100.00
16834;BME280;8533;48.426;10.868;2022-11-02T08:45:18;96996.16;;;11.40;100.00
16834;BME280;8533;48.426;10.868;2022-11-02T08:47:45;96988.47;;;11.59;100.00
16834;BME280;8533;48.426;10.868;2022-11-02T08:50:13;96989.64;;;11.77;100.00
16834;BME280;8533;48.426;10.868;2022-11-02T08:52:40;96990.43;;;11.90;100.00
16834;BME280;8533;48.426;10.868;2022-11-02T08:55:08;96990.06;;;11.98;100.00
16834;BME280;8533;48.426;10.868;2022-11-02T08:57:49;96986.05;;;12.07;99.77
16834;BME280;8533;48.426;10.868;2022-11-02T09:00:17;96987.73;;;12.13;99.04
16834;BME280;8533;48.426;10.868;2022-11-02T09:02:56;96987.59;;;12.19;98.79
16834;BME280;8533;48.426;10.868;2022-11-02T09:05:13;96985.05;;;12.24;99.00
16834;BME280;8533;48.426;10.868;2022-11-02T09:07:41;96987.88;;;12.35;98.94
16834;BME280;8533;48.426;10.868;2022-11-02T09:10:08;96986.47;;;12.44;98.69
16834;BME280;8533;48.426;10.868;2022-11-02T09:12:36;96990.02;;;12.52;97.85
16834;BME280;8533;48.426;10.868;2022-11-02T09:15:03;96986.22;;;12.59;97.84
16834;BME280;8533;48.426;10.868;2022-11-02T09:17:31;96987.53;;;12.59;97.07
16834;BME280;8533;48.426;10.868;2022-11-02T09:19:58;96986.33;;;12.65;96.73
16834;BME280;8533;48.426;10.868;2022-11-02T09:22:26;96988.69;;;12.66;95.96
16834;BME280;8533;48.426;10.868;2022-11-02T09:24:53;96995.07;;;12.70;95.54
16834;BME280;8533;48.426;10.868;2022-11-02T09:27:21;96996.95;;;12.72;93.47
16834;BME280;8533;48.426;10.868;2022-11-02T09:29:48;96996.69;;;12.74;91.92
16834;BME280;8533;48.426;10.868;2022-11-02T09:32:15;96996.17;;;12.74;91.03
16834;BME280;8533;48.426;10.868;2022-11-02T09:34:43;96999.37;;;12.76;91.55
16834;BME280;8533;48.426;10.868;2022-11-02T09:37:12;97005.03;;;12.85;91.68
16834;BME280;8533;48.426;10.868;2022-11-02T09:39:39;97003.04;;;12.92;90.47
16834;BME280;8533;48.426;10.868;2022-11-02T09:42:14;97006.06;;;13.00;90.45
16834;BME280;8533;48.426;10.868;2022-11-02T09:47:31;97011.77;;;13.12;89.05
16834;BME280;8533;48.426;10.868;2022-11-02T09:50:01;97014.27;;;13.18;88.79
16834;BME280;8533;48.426;10.868;2022-11-02T09:52:39;97011.41;;;13.20;87.16
16834;BME280;8533;48.426;10.868;2022-11-02T09:55:05;97017.29;;;13.27;85.77
16834;BME280;8533;48.426;10.868;2022-11-02T09:57:34;97016.37;;;13.35;85.79
16834;BME280;8533;48.426;10.868;2022-11-02T10:00:02;97022.55;;;13.46;85.28
16834;BME280;8533;48.426;10.868;2022-11-02T10:05:26;97024.66;;;13.47;81.34
16834;BME280;8533;48.426;10.868;2022-11-02T10:13:39;97024.12;;;13.45;77.26
16834;BME280;8533;48.426;10.868;2022-11-02T10:16:20;97022.14;;;13.54;78.04
16834;BME280;8533;48.426;10.868;2022-11-02T10:18:47;97018.86;;;13.64;76.85
16834;BME280;8533;48.426;10.868;2022-11-02T10:21:24;97019.98;;;13.68;76.75
16834;BME280;8533;48.426;10.868;2022-11-02T10:23:51;97019.24;;;13.72;77.80
16834;BME280;8533;48.426;10.868;2022-11-02T10:26:25;97021.96;;;13.78;78.49
16834;BME280;8533;48.426;10.868;2022-11-02T10:29:01;97022.95;;;13.74;75.64
16834;BME280;8533;48.426;10.868;2022-11-02T10:31:31;97026.42;;;13.77;75.26
16834;BME280;8533;48.426;10.868;2022-11-02T10:34:18;97019.91;;;13.82;75.63
16834;BME280;8533;48.426;10.868;2022-11-02T10:37:08;97019.16;;;13.84;76.40
16834;BME280;8533;48.426;10.868;2022-11-02T10:39:39;97019.84;;;13.77;76.63
16834;BME280;8533;48.426;10.868;2022-11-02T10:50:41;97022.05;;;13.66;77.30
16834;BME280;8533;48.426;10.868;2022-11-02T10:53:07;97023.31;;;13.61;76.47
16834;BME280;8533;48.426;10.868;2022-11-02T10:55:43;97024.11;;;13.61;76.52
16834;BME280;8533;48.426;10.868;2022-11-02T10:58:08;97025.83;;;13.53;76.26
16834;BME280;8533;48.426;10.868;2022-11-02T11:00:38;97027.67;;;13.55;76.53
16834;BME280;8533;48.426;10.868;2022-11-02T11:03:15;97028.56;;;13.61;75.25
16834;BME280;8533;48.426;10.868;2022-11-02T11:11:30;97022.25;;;13.81;74.46
16834;BME280;8533;48.426;10.868;2022-11-02T11:13:30;97019.48;;;13.90;74.97
16834;BME280;8533;48.426;10.868;2022-11-02T11:15:58;97017.97;;;13.94;74.86
16834;BME280;8533;48.426;10.868;2022-11-02T11:18:26;97012.95;;;13.95;75.11
16834;BME280;8533;48.426;10.868;2022-11-02T11:20:55;97016.76;;;14.04;74.38
16834;BME280;8533;48.426;10.868;2022-11-02T11:23:26;97016.15;;;13.97;73.86
16834;BME280;8533;48.426;10.868;2022-11-02T11:25:58;97012.20;;;13.97;73.94
16834;BME280;8533;48.426;10.868;2022-11-02T11:29:20;97012.28;;;14.02;74.25
16834;BME280;8533;48.426;10.868;2022-11-02T11:31:15;97004.72;;;14.08;73.66
16834;BME280;8533;48.426;10.868;2022-11-02T11:33:55;97005.76;;;14.07;73.16
16834;BME280;8533;48.426;10.868;2022-11-02T11:36:23;97011.54;;;14.07;72.49
16834;BME280;8533;48.426;10.868;2022-11-02T11:38:53;97003.45;;;14.13;72.62
16834;BME280;8533;48.426;10.868;2022-11-02T11:41:22;97001.68;;;13.97;72.01
16834;BME280;8533;48.426;10.868;2022-11-02T11:43:51;97001.72;;;14.00;72.46
16834;BME280;8533;48.426;10.868;2022-11-02T11:46:19;96990.69;;;14.00;72.38
16834;BME280;8533;48.426;10.868;2022-11-02T11:48:56;96988.94;;;14.08;72.20
16834;BME280;8533;48.426;10.868;2022-11-02T11:51:36;96997.16;;;14.14;71.90
16834;BME280;8533;48.426;10.868;2022-11-02T11:56:45;96977.10;;;14.35;71.55
16834;BME280;8533;48.426;10.868;2022-11-02T11:59:21;96980.95;;;14.47;70.86
16834;BME280;8533;48.426;10.868;2022-11-02T12:01:50;96987.25;;;14.46;71.01
16834;BME280;8533;48.426;10.868;2022-11-02T12:04:29;96984.73;;;14.56;70.86
16834;BME280;8533;48.426;10.868;2022-11-02T12:07:09;96985.28;;;14.58;70.16
16834;BME280;8533;48.426;10.868;2022-11-02T12:09:39;96983.66;;;14.55;70.33
16834;BME280;8533;48.426;10.868;2022-11-02T12:12:12;96977.07;;;14.55;69.59
16834;BME280;8533;48.426;10.868;2022-11-02T12:17:30;96974.61;;;14.72;70.36
16834;BME280;8533;48.426;10.868;2022-11-02T12:25:38;96961.16;;;14.71;68.01
16834;BME280;8533;48.426;10.868;2022-11-02T12:30:22;96960.40;;;14.73;68.71
16834;BME280;8533;48.426;10.868;2022-11-02T12:33:06;96958.77;;;14.67;68.67
16834;BME280;8533;48.426;10.868;2022-11-02T12:38:42;96949.34;;;14.76;69.07
16834;BME280;8533;48.426;10.868;2022-11-02T12:43:57;96958.13;;;14.87;68.25
16834;BME280;8533;48.426;10.868;2022-11-02T12:54:53;96958.77;;;14.67;67.82
16834;BME280;8533;48.426;10.868;2022-11-02T12:57:22;96952.68;;;14.64;67.88
16834;BME280;8533;48.426;10.868;2022-11-02T12:59:52;96954.83;;;14.70;68.25
16834;BME280;8533;48.426;10.868;2022-11-02T13:02:30;96957.67;;;14.63;67.55
16834;BME280;8533;48.426;10.868;2022-11-02T13:05:02;96949.77;;;14.63;67.62
16834;BME280;8533;48.426;10.868;2022-11-02T13:07:31;96947.59;;;14.55;67.67
16834;BME280;8533;48.426;10.868;2022-11-02T13:10:23;96946.80;;;14.55;68.19
16834;BME280;8533;48.426;10.868;2022-11-02T13:12:50;96941.25;;;14.54;68.46
16834;BME280;8533;48.426;10.868;2022-11-02T13:15:23;96934.39;;;14.50;67.83
16834;BME280;8533;48.426;10.868;2022-11-02T13:18:09;96934.67;;;14.51;67.58
16834;BME280;8533;48.426;10.868;2022-11-02T13:20:44;96937.13;;;14.63;68.31
16834;BME280;8533;48.426;10.868;2022-11-02T13:23:16;96930.94;;;14.79;67.83
16834;BME280;8533;48.426;10.868;2022-11-02T13:25:48;96931.90;;;15.00;67.53
16834;BME280;8533;48.426;10.868;2022-11-02T13:28:29;96930.05;;;15.03;67.06
16834;BME280;8533;48.426;10.868;2022-11-02T13:30:54;96937.17;;;15.02;67.66
16834;BME280;8533;48.426;10.868;2022-11-02T13:33:33;96921.16;;;15.11;67.67
16834;BME280;8533;48.426;10.868;2022-11-02T13:35:55;96923.09;;;15.26;67.72
16834;BME280;8533;48.426;10.868;2022-11-02T13:38:31;96923.66;;;15.31;66.89
16834;BME280;8533;48.426;10.868;2022-11-02T13:46:50;96914.61;;;15.19;65.62
16834;BME280;8533;48.426;10.868;2022-11-02T13:49:20;96912.85;;;14.93;66.52
16834;BME280;8533;48.426;10.868;2022-11-02T13:52:09;96916.56;;;14.92;66.80
16834;BME280;8533;48.426;10.868;2022-11-02T13:54:25;96908.43;;;15.01;66.31
16834;BME280;8533;48.426;10.868;2022-11-02T13:56:57;96906.07;;;15.02;65.86
16834;BME280;8533;48.426;10.868;2022-11-02T13:59:38;96900.14;;;15.21;64.91
16834;BME280;8533;48.426;10.868;2022-11-02T14:02:05;96910.05;;;15.51;63.68
16834;BME280;8533;48.426;10.868;2022-11-02T14:04:40;96911.98;;;15.63;64.17
16834;BME280;8533;48.426;10.868;2022-11-02T14:07:52;96907.02;;;15.72;62.76
16834;BME280;8533;48.426;10.868;2022-11-02T14:09:40;96899.67;;;15.87;61.69
16834;BME280;8533;48.426;10.868;2022-11-02T14:18:41;96892.02;;;15.90;61.11
16834;BME280;8533;48.426;10.868;2022-11-02T14:20:41;96892.71;;;15.60;61.37
16834;BME280;8533;48.426;10.868;2022-11-02T14:25:50;96897.33;;;15.41;62.70
16834;BME280;8533;48.426;10.868;2022-11-02T14:33:37;96896.69;;;15.16;65.95
16834;BME280;8533;48.426;10.868;2022-11-02T14:36:02;96892.72;;;15.13;65.28
16834;BME280;8533;48.426;10.868;2022-11-02T14:41:54;96894.41;;;15.32;65.61
16834;BME280;8533;48.426;10.868;2022-11-02T14:46:52;96899.20;;;15.45;65.46
16834;BME280;8533;48.426;10.868;2022-11-02T14:49:28;96899.19;;;15.43;65.65
16834;BME280;8533;48.426;10.868;2022-11-02T14:52:06;96901.44;;;15.19;66.42